Terminal Aerodrome Forecast
Issued by NWS

Home | Current Version | Previous Version | Graphics & Text | Print | Product List | Glossary On
Versions: 1 2 3 4 5 6 7 8 9 10 11 12 13 14 15 16 17 18 19 20 21
584
FTUS41 KCLE 181454 AAA
TAFFDY
TAF AMD
KFDY 181454Z 1815/1912 25010KT 4SM BR OVC008
      TEMPO 1815/1817 2SM BR OVC005
     FM181800 26010KT P6SM OVC012
     FM190000 23007KT P6SM OVC015=

USA.gov is the U.S. government's official web portal to all federal, state and local government web resources and services.